Москва, Russia

11:17 PM MSK на 12 Ноември, 2018 (GMT +0300)
Sheremetyevo | | Change Station

Elev 630 ft 55.98 °N, 37.50 °E | Updated 47 minutes ago

Ведро
Ведро
23 °F
Feels Like 12 °F
С
11
Ветер Променлив Ветер from ЈЈИ

Денес
High -- | Low -- °F
--% Chance of Precip.
Вчера
High -- | Low -- °F
Precip. -- инчи
Притисок 30.77 инчи
Видливост -9999.0 миљи
Облаци
Лични чувство за темп. со ветерот 12 °F
Точка на kондензација 14 °F
Влажност 68%
Дожд 0.00 инчи
Височина на снег Not available.
7:59 AM 4:28 PM
Првиот квартал, 25% visible
METAR UUEE 121930Z 16005MPS CAVOK M05/M10 Q1042 R06C/290045 R06R/290051 NOSIG
Притисок 30.77 инчи
Видливост -9999.0 миљи
Облаци
Лични чувство за темп. со ветерот 12 °F
Точка на kондензација 14 °F
Влажност 68%
Дожд 0.00 инчи
Височина на снег Not available.
7:59 AM 4:28 PM
Првиот квартал, 25% visible
METAR UUEE 121930Z 16005MPS CAVOK M05/M10 Q1042 R06C/290045 R06R/290051 NOSIG

Get Severe Weather Alerts

Thanks for signing up!

Be on the lookout for a verification email in your inbox.

You'll start receiving the daily forecast at 6 AM.

×

10-Day Weather Forecast

×

Almanac

Астрономијата

Nov. 12, 2018 Изгревање Заоѓање
Актуелно време
Граѓанскиот самрак
Наутички самрак
Астрономски самрак
Месечината
Должина на видливата светлина
Должина на денот
Tomorrow will be .
, % of the Moon is Illuminated

Екстреми денес

Country Highs Country Lows

Community

WunderPhotos

Category 6

Welcome to Category 6. This is the collective home for Weather Underground's featured writeups by Dr. Jeff Masters (right), Bob Henson (left), Chris Burt, and other regular contributors.

Nearby

Квалитетот на воздухот

  Квалитетот на воздухот AQ индекс Загадувач
Not available.

Височина на снег

Station Depth Висина

Earthquake Activity

Град Distance Mag. Time & Date
Minimum magnitude displayed is 2.5.

Coastal Water Temperatures

Место Температура

Stations

Nearby Weather Stations

Локација на станицата Темп. Лични чувство за темп. со ветерот Точка на kондензација Влажност Ветер Precip. Elev Ажурирани Тип